sensor_id;sensor_type;location;lat;lon;timestamp;temperature;humidity
23063;DHT22;11699;43.704;10.430;2023-05-19T00:01:29;15.80;99.90
23063;DHT22;11699;43.704;10.430;2023-05-19T00:03:58;15.70;99.90
23063;DHT22;11699;43.704;10.430;2023-05-19T00:06:28;15.60;99.90
23063;DHT22;11699;43.704;10.430;2023-05-19T00:08:57;15.60;99.90
23063;DHT22;11699;43.704;10.430;2023-05-19T00:11:26;15.50;99.90
23063;DHT22;11699;43.704;10.430;2023-05-19T00:13:55;15.60;99.90
23063;DHT22;11699;43.704;10.430;2023-05-19T00:16:25;15.70;99.90
23063;DHT22;11699;43.704;10.430;2023-05-19T00:18:52;15.80;99.90
23063;DHT22;11699;43.704;10.430;2023-05-19T00:21:20;15.90;99.90
23063;DHT22;11699;43.704;10.430;2023-05-19T00:23:47;15.90;99.90
23063;DHT22;11699;43.704;10.430;2023-05-19T00:26:14;15.90;99.90
23063;DHT22;11699;43.704;10.430;2023-05-19T00:28:41;15.90;99.90
23063;DHT22;11699;43.704;10.430;2023-05-19T00:31:09;15.90;99.90
23063;DHT22;11699;43.704;10.430;2023-05-19T00:33:37;15.80;99.90
23063;DHT22;11699;43.704;10.430;2023-05-19T00:36:05;15.90;99.90
23063;DHT22;11699;43.704;10.430;2023-05-19T00:38:34;15.80;99.90
23063;DHT22;11699;43.704;10.430;2023-05-19T00:41:03;15.80;99.90
23063;DHT22;11699;43.704;10.430;2023-05-19T00:43:30;15.90;99.90
23063;DHT22;11699;43.704;10.430;2023-05-19T00:45:59;15.90;99.90
23063;DHT22;11699;43.704;10.430;2023-05-19T00:48:27;15.80;99.90
23063;DHT22;11699;43.704;10.430;2023-05-19T00:50:56;15.70;99.90
23063;DHT22;11699;43.704;10.430;2023-05-19T00:53:27;15.50;99.90
23063;DHT22;11699;43.704;10.430;2023-05-19T00:55:55;15.50;99.90
23063;DHT22;11699;43.704;10.430;2023-05-19T00:58:24;15.50;99.90
23063;DHT22;11699;43.704;10.430;2023-05-19T01:00:54;15.40;99.90
23063;DHT22;11699;43.704;10.430;2023-05-19T01:03:28;15.40;99.90
23063;DHT22;11699;43.704;10.430;2023-05-19T01:05:58;15.50;99.90
23063;DHT22;11699;43.704;10.430;2023-05-19T01:08:31;15.40;99.90
23063;DHT22;11699;43.704;10.430;2023-05-19T01:10:58;15.30;99.90
23063;DHT22;11699;43.704;10.430;2023-05-19T01:13:26;15.30;99.90
23063;DHT22;11699;43.704;10.430;2023-05-19T01:16:00;15.40;99.90
23063;DHT22;11699;43.704;10.430;2023-05-19T01:18:51;15.40;99.90
23063;DHT22;11699;43.704;10.430;2023-05-19T01:21:53;15.50;99.90
23063;DHT22;11699;43.704;10.430;2023-05-19T01:24:33;15.40;99.90
23063;DHT22;11699;43.704;10.430;2023-05-19T01:27:42;15.30;99.90
23063;DHT22;11699;43.704;10.430;2023-05-19T01:30:27;15.20;99.90
23063;DHT22;11699;43.704;10.430;2023-05-19T01:32:58;15.10;99.90
23063;DHT22;11699;43.704;10.430;2023-05-19T01:35:27;15.20;99.90
23063;DHT22;11699;43.704;10.430;2023-05-19T01:37:57;15.10;99.90
23063;DHT22;11699;43.704;10.430;2023-05-19T01:40:27;15.10;99.90
23063;DHT22;11699;43.704;10.430;2023-05-19T01:42:56;15.20;99.90
23063;DHT22;11699;43.704;10.430;2023-05-19T01:45:26;14.90;99.90
23063;DHT22;11699;43.704;10.430;2023-05-19T01:47:56;15.00;99.90
23063;DHT22;11699;43.704;10.430;2023-05-19T01:50:23;15.00;99.90
23063;DHT22;11699;43.704;10.430;2023-05-19T01:52:51;14.90;99.90
23063;DHT22;11699;43.704;10.430;2023-05-19T01:55:19;14.90;99.90
23063;DHT22;11699;43.704;10.430;2023-05-19T01:57:54;14.90;99.90
23063;DHT22;11699;43.704;10.430;2023-05-19T02:00:33;15.00;99.90
23063;DHT22;11699;43.704;10.430;2023-05-19T02:03:12;14.90;99.90
23063;DHT22;11699;43.704;10.430;2023-05-19T02:05:48;14.80;99.90
23063;DHT22;11699;43.704;10.430;2023-05-19T02:08:29;14.70;99.90
23063;DHT22;11699;43.704;10.430;2023-05-19T02:11:02;14.70;99.90
23063;DHT22;11699;43.704;10.430;2023-05-19T02:13:35;14.60;99.90
23063;DHT22;11699;43.704;10.430;2023-05-19T02:16:05;14.40;99.90
23063;DHT22;11699;43.704;10.430;2023-05-19T02:18:32;14.40;99.90
23063;DHT22;11699;43.704;10.430;2023-05-19T02:21:00;14.30;99.90
23063;DHT22;11699;43.704;10.430;2023-05-19T02:23:27;14.30;99.90
23063;DHT22;11699;43.704;10.430;2023-05-19T02:25:54;14.20;99.90
23063;DHT22;11699;43.704;10.430;2023-05-19T02:28:21;14.30;99.90
23063;DHT22;11699;43.704;10.430;2023-05-19T02:30:52;14.30;99.90
23063;DHT22;11699;43.704;10.430;2023-05-19T02:33:21;14.30;99.90
23063;DHT22;11699;43.704;10.430;2023-05-19T02:35:51;14.30;99.90
23063;DHT22;11699;43.704;10.430;2023-05-19T02:38:18;14.20;99.90
23063;DHT22;11699;43.704;10.430;2023-05-19T02:40:46;14.10;99.90
23063;DHT22;11699;43.704;10.430;2023-05-19T02:43:13;14.10;99.90
23063;DHT22;11699;43.704;10.430;2023-05-19T02:45:40;14.20;99.90
23063;DHT22;11699;43.704;10.430;2023-05-19T02:48:08;14.10;99.90
23063;DHT22;11699;43.704;10.430;2023-05-19T02:50:36;14.30;99.90
23063;DHT22;11699;43.704;10.430;2023-05-19T02:53:04;14.40;99.90
23063;DHT22;11699;43.704;10.430;2023-05-19T02:55:31;14.50;99.90
23063;DHT22;11699;43.704;10.430;2023-05-19T02:57:59;14.70;99.90
23063;DHT22;11699;43.704;10.430;2023-05-19T03:00:26;14.70;99.90
23063;DHT22;11699;43.704;10.430;2023-05-19T03:02:53;14.80;99.90
23063;DHT22;11699;43.704;10.430;2023-05-19T03:05:20;14.90;99.90
23063;DHT22;11699;43.704;10.430;2023-05-19T03:07:49;14.80;99.90
23063;DHT22;11699;43.704;10.430;2023-05-19T03:10:16;14.60;99.90
23063;DHT22;11699;43.704;10.430;2023-05-19T03:12:44;14.60;99.90
23063;DHT22;11699;43.704;10.430;2023-05-19T03:15:11;14.70;99.90
23063;DHT22;11699;43.704;10.430;2023-05-19T03:17:39;14.80;99.90
23063;DHT22;11699;43.704;10.430;2023-05-19T03:20:08;14.90;99.90
23063;DHT22;11699;43.704;10.430;2023-05-19T03:22:36;14.90;99.90
23063;DHT22;11699;43.704;10.430;2023-05-19T03:25:05;14.90;99.90
23063;DHT22;11699;43.704;10.430;2023-05-19T03:27:32;14.90;99.90
23063;DHT22;11699;43.704;10.430;2023-05-19T03:29:59;14.90;99.90
23063;DHT22;11699;43.704;10.430;2023-05-19T03:32:27;14.90;99.90
23063;DHT22;11699;43.704;10.430;2023-05-19T03:34:54;14.90;99.90
23063;DHT22;11699;43.704;10.430;2023-05-19T03:37:21;14.80;99.90
23063;DHT22;11699;43.704;10.430;2023-05-19T03:39:49;14.70;99.90
23063;DHT22;11699;43.704;10.430;2023-05-19T03:42:18;14.70;99.90
23063;DHT22;11699;43.704;10.430;2023-05-19T03:44:45;14.80;99.90
23063;DHT22;11699;43.704;10.430;2023-05-19T03:47:14;14.90;99.90
23063;DHT22;11699;43.704;10.430;2023-05-19T03:49:41;14.80;99.90
23063;DHT22;11699;43.704;10.430;2023-05-19T03:52:09;14.70;99.90
23063;DHT22;11699;43.704;10.430;2023-05-19T03:54:37;14.70;99.90
23063;DHT22;11699;43.704;10.430;2023-05-19T03:57:08;14.70;99.90
23063;DHT22;11699;43.704;10.430;2023-05-19T03:59:37;14.50;99.90
23063;DHT22;11699;43.704;10.430;2023-05-19T04:02:06;14.50;99.90
23063;DHT22;11699;43.704;10.430;2023-05-19T04:04:33;14.50;99.90
23063;DHT22;11699;43.704;10.430;2023-05-19T04:07:02;14.40;99.90
23063;DHT22;11699;43.704;10.430;2023-05-19T04:09:29;14.30;99.90
23063;DHT22;11699;43.704;10.430;2023-05-19T04:12:00;14.20;99.90
23063;DHT22;11699;43.704;10.430;2023-05-19T04:14:28;14.20;99.90
23063;DHT22;11699;43.704;10.430;2023-05-19T04:16:57;14.20;99.90
23063;DHT22;11699;43.704;10.430;2023-05-19T04:19:24;14.30;99.90
23063;DHT22;11699;43.704;10.430;2023-05-19T04:21:51;14.20;99.90
23063;DHT22;11699;43.704;10.430;2023-05-19T04:24:19;14.30;99.90
23063;DHT22;11699;43.704;10.430;2023-05-19T04:26:46;14.30;99.90
23063;DHT22;11699;43.704;10.430;2023-05-19T04:29:13;14.30;99.90
23063;DHT22;11699;43.704;10.430;2023-05-19T04:31:42;14.30;99.90
23063;DHT22;11699;43.704;10.430;2023-05-19T04:34:11;14.30;99.90
23063;DHT22;11699;43.704;10.430;2023-05-19T04:36:38;14.40;99.90
23063;DHT22;11699;43.704;10.430;2023-05-19T04:39:06;14.50;99.90
23063;DHT22;11699;43.704;10.430;2023-05-19T04:41:35;14.50;99.90
23063;DHT22;11699;43.704;10.430;2023-05-19T04:44:05;14.70;99.90
23063;DHT22;11699;43.704;10.430;2023-05-19T04:46:33;14.70;99.90
23063;DHT22;11699;43.704;10.430;2023-05-19T04:49:01;14.80;99.90
23063;DHT22;11699;43.704;10.430;2023-05-19T04:51:29;14.90;99.90
23063;DHT22;11699;43.704;10.430;2023-05-19T04:53:57;14.90;99.90
23063;DHT22;11699;43.704;10.430;2023-05-19T04:56:24;15.00;99.90
23063;DHT22;11699;43.704;10.430;2023-05-19T04:58:52;15.00;99.90
23063;DHT22;11699;43.704;10.430;2023-05-19T05:01:19;15.00;99.90
23063;DHT22;11699;43.704;10.430;2023-05-19T05:03:50;15.00;99.90
23063;DHT22;11699;43.704;10.430;2023-05-19T05:06:20;15.00;99.90
23063;DHT22;11699;43.704;10.430;2023-05-19T05:08:49;15.00;99.90
23063;DHT22;11699;43.704;10.430;2023-05-19T05:11:17;15.00;99.90
23063;DHT22;11699;43.704;10.430;2023-05-19T05:13:45;15.10;99.90
23063;DHT22;11699;43.704;10.430;2023-05-19T05:16:13;15.20;99.90
23063;DHT22;11699;43.704;10.430;2023-05-19T05:18:41;15.10;99.90
23063;DHT22;11699;43.704;10.430;2023-05-19T05:21:10;15.10;99.90
23063;DHT22;11699;43.704;10.430;2023-05-19T05:23:37;15.20;99.90
23063;DHT22;11699;43.704;10.430;2023-05-19T05:26:09;15.30;99.90
23063;DHT22;11699;43.704;10.430;2023-05-19T05:28:40;15.30;99.90
23063;DHT22;11699;43.704;10.430;2023-05-19T05:31:07;15.40;99.90
23063;DHT22;11699;43.704;10.430;2023-05-19T05:33:35;15.50;99.90
23063;DHT22;11699;43.704;10.430;2023-05-19T05:36:02;15.50;99.90
23063;DHT22;11699;43.704;10.430;2023-05-19T05:38:30;15.50;99.90
23063;DHT22;11699;43.704;10.430;2023-05-19T05:40:57;15.60;99.90
23063;DHT22;11699;43.704;10.430;2023-05-19T05:43:26;15.50;99.90
23063;DHT22;11699;43.704;10.430;2023-05-19T05:45:54;15.50;99.90
23063;DHT22;11699;43.704;10.430;2023-05-19T05:48:21;15.50;99.90
23063;DHT22;11699;43.704;10.430;2023-05-19T05:50:49;15.60;99.90
23063;DHT22;11699;43.704;10.430;2023-05-19T05:53:18;15.70;99.90
23063;DHT22;11699;43.704;10.430;2023-05-19T05:55:46;15.60;99.90
23063;DHT22;11699;43.704;10.430;2023-05-19T05:58:14;15.60;99.90
23063;DHT22;11699;43.704;10.430;2023-05-19T06:00:43;15.60;99.90
23063;DHT22;11699;43.704;10.430;2023-05-19T06:03:12;15.70;99.90
23063;DHT22;11699;43.704;10.430;2023-05-19T06:05:40;15.80;99.90
23063;DHT22;11699;43.704;10.430;2023-05-19T06:08:07;15.90;99.90
23063;DHT22;11699;43.704;10.430;2023-05-19T06:10:34;15.90;99.90
23063;DHT22;11699;43.704;10.430;2023-05-19T06:13:03;16.00;99.90
23063;DHT22;11699;43.704;10.430;2023-05-19T06:15:31;16.10;99.90
23063;DHT22;11699;43.704;10.430;2023-05-19T06:18:00;16.10;99.90
23063;DHT22;11699;43.704;10.430;2023-05-19T06:20:27;16.10;99.90
23063;DHT22;11699;43.704;10.430;2023-05-19T06:22:55;16.00;99.90
23063;DHT22;11699;43.704;10.430;2023-05-19T06:25:22;16.00;99.90
23063;DHT22;11699;43.704;10.430;2023-05-19T06:27:49;16.00;99.90
23063;DHT22;11699;43.704;10.430;2023-05-19T06:30:17;16.20;99.90
23063;DHT22;11699;43.704;10.430;2023-05-19T06:32:44;16.30;99.90
23063;DHT22;11699;43.704;10.430;2023-05-19T06:35:13;16.20;99.90
23063;DHT22;11699;43.704;10.430;2023-05-19T06:37:40;16.10;99.90
23063;DHT22;11699;43.704;10.430;2023-05-19T06:40:09;16.30;99.90
23063;DHT22;11699;43.704;10.430;2023-05-19T06:42:36;16.40;99.90
23063;DHT22;11699;43.704;10.430;2023-05-19T06:45:04;16.40;99.90
23063;DHT22;11699;43.704;10.430;2023-05-19T06:47:32;16.60;99.90
23063;DHT22;11699;43.704;10.430;2023-05-19T06:49:59;16.70;99.90
23063;DHT22;11699;43.704;10.430;2023-05-19T06:52:28;16.90;99.90
23063;DHT22;11699;43.704;10.430;2023-05-19T06:54:56;17.00;99.90
23063;DHT22;11699;43.704;10.430;2023-05-19T06:57:23;17.00;99.90
23063;DHT22;11699;43.704;10.430;2023-05-19T06:59:51;17.00;99.90
23063;DHT22;11699;43.704;10.430;2023-05-19T07:02:18;17.10;99.90
23063;DHT22;11699;43.704;10.430;2023-05-19T07:04:45;17.30;99.90
23063;DHT22;11699;43.704;10.430;2023-05-19T07:07:12;17.20;99.90
23063;DHT22;11699;43.704;10.430;2023-05-19T07:09:41;17.10;99.90
23063;DHT22;11699;43.704;10.430;2023-05-19T07:12:09;17.00;99.90
23063;DHT22;11699;43.704;10.430;2023-05-19T07:14:36;17.10;99.90
23063;DHT22;11699;43.704;10.430;2023-05-19T07:17:04;17.00;99.90
23063;DHT22;11699;43.704;10.430;2023-05-19T07:19:31;17.00;99.90
23063;DHT22;11699;43.704;10.430;2023-05-19T07:21:58;17.10;99.90
23063;DHT22;11699;43.704;10.430;2023-05-19T07:24:26;17.20;99.90
23063;DHT22;11699;43.704;10.430;2023-05-19T07:26:54;17.40;99.90
23063;DHT22;11699;43.704;10.430;2023-05-19T07:29:23;17.50;99.90
23063;DHT22;11699;43.704;10.430;2023-05-19T07:31:50;17.60;99.90
23063;DHT22;11699;43.704;10.430;2023-05-19T07:34:22;17.80;99.90
23063;DHT22;11699;43.704;10.430;2023-05-19T07:36:49;17.80;99.90
23063;DHT22;11699;43.704;10.430;2023-05-19T07:39:17;17.50;99.90
23063;DHT22;11699;43.704;10.430;2023-05-19T07:41:45;17.10;99.90
23063;DHT22;11699;43.704;10.430;2023-05-19T07:44:19;17.10;99.90
23063;DHT22;11699;43.704;10.430;2023-05-19T07:46:46;17.10;99.90
23063;DHT22;11699;43.704;10.430;2023-05-19T07:49:14;17.10;99.90
23063;DHT22;11699;43.704;10.430;2023-05-19T07:51:41;17.00;99.90
23063;DHT22;11699;43.704;10.430;2023-05-19T07:54:09;16.90;99.90
23063;DHT22;11699;43.704;10.430;2023-05-19T07:56:36;16.80;99.90
23063;DHT22;11699;43.704;10.430;2023-05-19T07:59:04;16.80;99.90
23063;DHT22;11699;43.704;10.430;2023-05-19T08:01:34;16.80;99.90
23063;DHT22;11699;43.704;10.430;2023-05-19T08:04:02;17.00;99.90
23063;DHT22;11699;43.704;10.430;2023-05-19T08:06:29;17.10;99.90
23063;DHT22;11699;43.704;10.430;2023-05-19T08:08:57;17.00;99.90
23063;DHT22;11699;43.704;10.430;2023-05-19T08:11:24;17.10;99.90
23063;DHT22;11699;43.704;10.430;2023-05-19T08:13:51;17.20;99.90
23063;DHT22;11699;43.704;10.430;2023-05-19T08:16:18;17.40;99.90
23063;DHT22;11699;43.704;10.430;2023-05-19T08:18:47;17.50;99.90
23063;DHT22;11699;43.704;10.430;2023-05-19T08:21:15;17.60;99.90
23063;DHT22;11699;43.704;10.430;2023-05-19T08:23:42;17.90;99.90
23063;DHT22;11699;43.704;10.430;2023-05-19T08:26:09;18.20;99.90
23063;DHT22;11699;43.704;10.430;2023-05-19T08:28:36;18.20;99.90
23063;DHT22;11699;43.704;10.430;2023-05-19T08:31:04;18.30;99.90
23063;DHT22;11699;43.704;10.430;2023-05-19T08:33:31;18.20;99.90
23063;DHT22;11699;43.704;10.430;2023-05-19T08:35:59;18.20;99.90
23063;DHT22;11699;43.704;10.430;2023-05-19T08:38:27;18.30;99.90
23063;DHT22;11699;43.704;10.430;2023-05-19T08:40:54;18.10;99.90
23063;DHT22;11699;43.704;10.430;2023-05-19T08:43:22;18.00;99.90
23063;DHT22;11699;43.704;10.430;2023-05-19T08:45:52;17.90;99.90
23063;DHT22;11699;43.704;10.430;2023-05-19T08:48:21;17.80;99.90
23063;DHT22;11699;43.704;10.430;2023-05-19T08:50:53;17.80;99.90
23063;DHT22;11699;43.704;10.430;2023-05-19T08:53:26;17.80;99.90
23063;DHT22;11699;43.704;10.430;2023-05-19T08:56:00;18.00;99.90
23063;DHT22;11699;43.704;10.430;2023-05-19T08:58:35;18.00;99.90
23063;DHT22;11699;43.704;10.430;2023-05-19T09:01:04;17.80;99.90
23063;DHT22;11699;43.704;10.430;2023-05-19T09:03:32;17.70;99.90
23063;DHT22;11699;43.704;10.430;2023-05-19T09:06:04;17.70;99.90
23063;DHT22;11699;43.704;10.430;2023-05-19T09:08:34;17.70;99.90
23063;DHT22;11699;43.704;10.430;2023-05-19T09:11:02;17.70;99.90
23063;DHT22;11699;43.704;10.430;2023-05-19T09:13:29;17.70;99.90
23063;DHT22;11699;43.704;10.430;2023-05-19T09:15:57;17.80;99.90
23063;DHT22;11699;43.704;10.430;2023-05-19T09:18:26;17.80;99.90
23063;DHT22;11699;43.704;10.430;2023-05-19T09:20:57;17.60;99.90
23063;DHT22;11699;43.704;10.430;2023-05-19T09:23:27;17.60;99.90
23063;DHT22;11699;43.704;10.430;2023-05-19T09:25:56;17.50;99.90
23063;DHT22;11699;43.704;10.430;2023-05-19T09:28:25;17.60;99.90
23063;DHT22;11699;43.704;10.430;2023-05-19T09:31:01;17.80;99.90
23063;DHT22;11699;43.704;10.430;2023-05-19T09:33:29;17.80;99.90
23063;DHT22;11699;43.704;10.430;2023-05-19T09:35:56;17.80;99.90
23063;DHT22;11699;43.704;10.430;2023-05-19T09:38:25;17.50;99.90
23063;DHT22;11699;43.704;10.430;2023-05-19T09:40:55;17.50;99.90
23063;DHT22;11699;43.704;10.430;2023-05-19T09:43:26;17.50;99.90
23063;DHT22;11699;43.704;10.430;2023-05-19T09:45:56;17.60;99.90
23063;DHT22;11699;43.704;10.430;2023-05-19T09:48:25;17.70;99.90
23063;DHT22;11699;43.704;10.430;2023-05-19T09:50:52;17.70;99.90
23063;DHT22;11699;43.704;10.430;2023-05-19T09:53:20;17.80;99.90
23063;DHT22;11699;43.704;10.430;2023-05-19T09:55:48;18.00;99.90
23063;DHT22;11699;43.704;10.430;2023-05-19T09:58:19;18.30;99.90
23063;DHT22;11699;43.704;10.430;2023-05-19T10:00:47;18.20;99.90
23063;DHT22;11699;43.704;10.430;2023-05-19T10:03:15;18.10;99.90
23063;DHT22;11699;43.704;10.430;2023-05-19T10:05:44;18.00;99.90
23063;DHT22;11699;43.704;10.430;2023-05-19T10:08:13;18.10;99.90
23063;DHT22;11699;43.704;10.430;2023-05-19T10:10:44;18.10;99.90
23063;DHT22;11699;43.704;10.430;2023-05-19T10:13:12;18.00;99.90
23063;DHT22;11699;43.704;10.430;2023-05-19T10:15:41;17.80;99.90
23063;DHT22;11699;43.704;10.430;2023-05-19T10:18:09;18.00;99.90
23063;DHT22;11699;43.704;10.430;2023-05-19T10:20:37;18.20;99.90
23063;DHT22;11699;43.704;10.430;2023-05-19T10:23:05;18.30;99.90
23063;DHT22;11699;43.704;10.430;2023-05-19T10:25:33;18.60;99.90
23063;DHT22;11699;43.704;10.430;2023-05-19T10:28:06;18.70;99.90
23063;DHT22;11699;43.704;10.430;2023-05-19T10:30:37;18.50;99.90
23063;DHT22;11699;43.704;10.430;2023-05-19T10:33:08;18.30;99.90
23063;DHT22;11699;43.704;10.430;2023-05-19T10:35:50;18.30;99.90
23063;DHT22;11699;43.704;10.430;2023-05-19T10:38:26;18.30;99.90
23063;DHT22;11699;43.704;10.430;2023-05-19T10:41:01;18.30;99.90
23063;DHT22;11699;43.704;10.430;2023-05-19T10:43:43;18.60;99.90
23063;DHT22;11699;43.704;10.430;2023-05-19T10:46:14;18.70;99.90
23063;DHT22;11699;43.704;10.430;2023-05-19T10:48:44;18.60;99.90
23063;DHT22;11699;43.704;10.430;2023-05-19T10:51:13;18.50;99.90
23063;DHT22;11699;43.704;10.430;2023-05-19T10:53:41;18.30;99.90
23063;DHT22;11699;43.704;10.430;2023-05-19T10:56:27;18.20;99.90
23063;DHT22;11699;43.704;10.430;2023-05-19T10:58:56;17.90;99.90
23063;DHT22;11699;43.704;10.430;2023-05-19T11:01:30;17.80;99.90
23063;DHT22;11699;43.704;10.430;2023-05-19T11:04:04;17.70;99.90
23063;DHT22;11699;43.704;10.430;2023-05-19T11:06:32;17.70;99.90
23063;DHT22;11699;43.704;10.430;2023-05-19T11:09:01;17.70;99.90
23063;DHT22;11699;43.704;10.430;2023-05-19T11:11:46;17.90;99.90
23063;DHT22;11699;43.704;10.430;2023-05-19T11:14:14;18.00;99.90
23063;DHT22;11699;43.704;10.430;2023-05-19T11:16:45;18.20;99.90
23063;DHT22;11699;43.704;10.430;2023-05-19T11:19:18;18.40;99.90
23063;DHT22;11699;43.704;10.430;2023-05-19T11:21:46;18.70;99.90
23063;DHT22;11699;43.704;10.430;2023-05-19T11:24:33;18.90;99.90
23063;DHT22;11699;43.704;10.430;2023-05-19T11:27:16;19.00;99.90
23063;DHT22;11699;43.704;10.430;2023-05-19T11:29:44;18.80;99.90
23063;DHT22;11699;43.704;10.430;2023-05-19T11:32:13;19.00;99.90
23063;DHT22;11699;43.704;10.430;2023-05-19T11:34:43;19.10;99.90
23063;DHT22;11699;43.704;10.430;2023-05-19T11:37:11;19.30;99.90
23063;DHT22;11699;43.704;10.430;2023-05-19T11:39:38;19.50;99.90
23063;DHT22;11699;43.704;10.430;2023-05-19T11:42:07;19.90;99.90
23063;DHT22;11699;43.704;10.430;2023-05-19T11:44:35;20.10;99.90
23063;DHT22;11699;43.704;10.430;2023-05-19T11:47:04;20.20;99.90
23063;DHT22;11699;43.704;10.430;2023-05-19T11:49:31;20.20;99.90
23063;DHT22;11699;43.704;10.430;2023-05-19T11:52:00;20.20;99.90
23063;DHT22;11699;43.704;10.430;2023-05-19T11:54:29;20.30;99.90
23063;DHT22;11699;43.704;10.430;2023-05-19T11:56:59;20.50;99.90
23063;DHT22;11699;43.704;10.430;2023-05-19T11:59:31;20.50;99.90
23063;DHT22;11699;43.704;10.430;2023-05-19T12:02:14;20.40;99.90
23063;DHT22;11699;43.704;10.430;2023-05-19T12:04:42;20.10;99.90
23063;DHT22;11699;43.704;10.430;2023-05-19T12:07:11;20.00;99.90
23063;DHT22;11699;43.704;10.430;2023-05-19T12:09:40;19.70;99.90
23063;DHT22;11699;43.704;10.430;2023-05-19T12:12:07;19.50;99.90
23063;DHT22;11699;43.704;10.430;2023-05-19T12:14:36;19.20;99.90
23063;DHT22;11699;43.704;10.430;2023-05-19T12:17:11;19.20;99.90
23063;DHT22;11699;43.704;10.430;2023-05-19T12:19:39;19.00;99.90
23063;DHT22;11699;43.704;10.430;2023-05-19T12:22:07;18.90;99.90
23063;DHT22;11699;43.704;10.430;2023-05-19T12:24:36;18.90;99.90
23063;DHT22;11699;43.704;10.430;2023-05-19T12:27:05;18.70;99.90
23063;DHT22;11699;43.704;10.430;2023-05-19T12:29:33;18.50;99.90
23063;DHT22;11699;43.704;10.430;2023-05-19T12:32:01;18.40;99.90
23063;DHT22;11699;43.704;10.430;2023-05-19T12:34:29;18.40;99.90
23063;DHT22;11699;43.704;10.430;2023-05-19T12:36:57;18.40;99.90
23063;DHT22;11699;43.704;10.430;2023-05-19T12:39:25;18.30;99.90
23063;DHT22;11699;43.704;10.430;2023-05-19T12:42:00;18.30;99.90
23063;DHT22;11699;43.704;10.430;2023-05-19T12:44:27;18.20;99.90
23063;DHT22;11699;43.704;10.430;2023-05-19T12:46:56;18.10;99.90
23063;DHT22;11699;43.704;10.430;2023-05-19T12:49:24;18.20;99.90
23063;DHT22;11699;43.704;10.430;2023-05-19T12:51:52;18.20;99.90
23063;DHT22;11699;43.704;10.430;2023-05-19T12:54:20;18.30;99.90
23063;DHT22;11699;43.704;10.430;2023-05-19T12:56:50;18.40;99.90
23063;DHT22;11699;43.704;10.430;2023-05-19T12:59:23;18.60;99.90
23063;DHT22;11699;43.704;10.430;2023-05-19T13:01:55;19.10;99.90
23063;DHT22;11699;43.704;10.430;2023-05-19T13:04:23;19.60;99.90
23063;DHT22;11699;43.704;10.430;2023-05-19T13:06:51;20.20;99.90
23063;DHT22;11699;43.704;10.430;2023-05-19T13:09:18;20.50;99.90
23063;DHT22;11699;43.704;10.430;2023-05-19T13:11:46;20.70;99.90
23063;DHT22;11699;43.704;10.430;2023-05-19T13:14:16;20.80;99.90
23063;DHT22;11699;43.704;10.430;2023-05-19T13:16:45;20.90;99.90
23063;DHT22;11699;43.704;10.430;2023-05-19T13:19:14;20.80;99.90
23063;DHT22;11699;43.704;10.430;2023-05-19T13:21:42;20.70;99.90
23063;DHT22;11699;43.704;10.430;2023-05-19T13:24:11;20.80;99.90
23063;DHT22;11699;43.704;10.430;2023-05-19T13:26:38;20.40;99.90
23063;DHT22;11699;43.704;10.430;2023-05-19T13:29:06;20.30;99.90
23063;DHT22;11699;43.704;10.430;2023-05-19T13:31:34;20.10;99.90
23063;DHT22;11699;43.704;10.430;2023-05-19T13:34:03;19.80;99.90
23063;DHT22;11699;43.704;10.430;2023-05-19T13:36:30;19.80;99.90
23063;DHT22;11699;43.704;10.430;2023-05-19T13:38:59;19.60;99.90
23063;DHT22;11699;43.704;10.430;2023-05-19T13:41:27;19.30;99.90
23063;DHT22;11699;43.704;10.430;2023-05-19T13:43:56;19.30;99.90
23063;DHT22;11699;43.704;10.430;2023-05-19T13:46:24;19.30;99.90
23063;DHT22;11699;43.704;10.430;2023-05-19T13:48:52;19.40;99.90
23063;DHT22;11699;43.704;10.430;2023-05-19T13:51:21;19.20;99.90
23063;DHT22;11699;43.704;10.430;2023-05-19T13:53:48;19.20;99.90
23063;DHT22;11699;43.704;10.430;2023-05-19T13:56:15;19.20;99.90
23063;DHT22;11699;43.704;10.430;2023-05-19T13:58:43;19.10;99.90
23063;DHT22;11699;43.704;10.430;2023-05-19T14:01:10;19.00;99.90
23063;DHT22;11699;43.704;10.430;2023-05-19T14:03:38;19.00;99.90
23063;DHT22;11699;43.704;10.430;2023-05-19T14:06:05;18.90;99.90
23063;DHT22;11699;43.704;10.430;2023-05-19T14:08:35;18.90;99.90
23063;DHT22;11699;43.704;10.430;2023-05-19T14:11:02;19.00;99.90
23063;DHT22;11699;43.704;10.430;2023-05-19T14:13:30;19.00;99.90
23063;DHT22;11699;43.704;10.430;2023-05-19T14:15:58;18.90;99.90
23063;DHT22;11699;43.704;10.430;2023-05-19T14:18:25;18.90;99.90
23063;DHT22;11699;43.704;10.430;2023-05-19T14:20:52;19.10;99.90
23063;DHT22;11699;43.704;10.430;2023-05-19T14:23:23;19.00;99.90
23063;DHT22;11699;43.704;10.430;2023-05-19T14:25:52;19.00;99.90
23063;DHT22;11699;43.704;10.430;2023-05-19T14:28:19;19.10;99.90
23063;DHT22;11699;43.704;10.430;2023-05-19T14:30:48;19.30;99.90
23063;DHT22;11699;43.704;10.430;2023-05-19T14:33:16;19.30;99.90
23063;DHT22;11699;43.704;10.430;2023-05-19T14:35:45;19.10;99.90
23063;DHT22;11699;43.704;10.430;2023-05-19T14:38:13;19.10;99.90
23063;DHT22;11699;43.704;10.430;2023-05-19T14:40:43;19.20;99.90
23063;DHT22;11699;43.704;10.430;2023-05-19T14:43:14;19.30;99.90
23063;DHT22;11699;43.704;10.430;2023-05-19T14:45:41;19.20;99.90
23063;DHT22;11699;43.704;10.430;2023-05-19T14:48:09;19.20;99.90
23063;DHT22;11699;43.704;10.430;2023-05-19T14:50:36;19.10;99.90
23063;DHT22;11699;43.704;10.430;2023-05-19T14:53:04;19.10;99.90
23063;DHT22;11699;43.704;10.430;2023-05-19T14:55:32;19.10;99.90
23063;DHT22;11699;43.704;10.430;2023-05-19T14:57:59;19.10;99.90
23063;DHT22;11699;43.704;10.430;2023-05-19T15:00:28;19.20;99.90
23063;DHT22;11699;43.704;10.430;2023-05-19T15:02:55;19.20;99.90
23063;DHT22;11699;43.704;10.430;2023-05-19T15:05:22;19.20;99.90
23063;DHT22;11699;43.704;10.430;2023-05-19T15:07:50;19.10;99.90
23063;DHT22;11699;43.704;10.430;2023-05-19T15:10:18;19.10;99.90
23063;DHT22;11699;43.704;10.430;2023-05-19T15:12:46;19.10;99.90
23063;DHT22;11699;43.704;10.430;2023-05-19T15:15:13;19.10;99.90
23063;DHT22;11699;43.704;10.430;2023-05-19T15:17:43;18.90;99.90
23063;DHT22;11699;43.704;10.430;2023-05-19T15:20:12;18.90;99.90
23063;DHT22;11699;43.704;10.430;2023-05-19T15:22:40;18.90;99.90
23063;DHT22;11699;43.704;10.430;2023-05-19T15:25:08;18.80;99.90
23063;DHT22;11699;43.704;10.430;2023-05-19T15:27:36;18.80;99.90